This is the latest recevied weather packets stored in our database for station/object I5EKX-13. If no packets are shown the sender has not sent any weather packets the latest 10 day(s).
| Time | Temp. | Humidity | Pressure | Rain* | Wind** | Luminosity | Snow |
|---|---|---|---|---|---|---|---|
| 1777219307 | 18.89° C | 62% | 1014 hPa | - | - | - | - |
| 1777218103 | 19.44° C | 62% | 1014.2 hPa | - | - | - | - |
| 1777216899 | 19.44° C | 57% | 1014.2 hPa | - | - | - | - |
| 1777215695 | 20° C | 59% | 1014.2 hPa | - | - | - | - |
| 1777214491 | 20.56° C | 55% | 1014.4 hPa | - | - | - | - |
| 1777213287 | 20.56° C | 57% | 1014.5 hPa | - | - | - | - |
| 1777212083 | 22.22° C | 53% | 1014.4 hPa | - | - | - | - |
| 1777210880 | 23.33° C | 51% | 1014.6 hPa | - | - | - | - |
| 1777209676 | 22.78° C | 52% | 1014.7 hPa | - | - | - | - |
| 1777208471 | 23.33° C | 50% | 1014.7 hPa | - | - | - | - |
| 1777207267 | 23.33° C | 49% | 1014.9 hPa | - | - | - | - |
| 1777204860 | 23.33° C | 54% | 1014.9 hPa | - | - | - | - |
| 1777203656 | 24.44° C | 52% | 1014.9 hPa | - | - | - | - |
| 1777202452 | 22.78° C | 54% | 1014.9 hPa | - | - | - | - |
| 1777201248 | 22.22° C | 55% | 1015 hPa | - | - | - | - |
| 1777200043 | 23.89° C | 54% | 1015.1 hPa | - | - | - | - |
| 1777198840 | 22.78° C | 57% | 1015 hPa | - | - | - | - |
| 1777197636 | 22.78° C | 56% | 1015 hPa | - | - | - | - |
| 1777196432 | 21.67° C | 60% | 1015 hPa | - | - | - | - |
| 1777195228 | 21.67° C | 60% | 1015 hPa | - | - | - | - |
| 1777194024 | 22.22° C | 58% | 1014.8 hPa | - | - | - | - |
| 1777192820 | 21.11° C | 58% | 1014.8 hPa | - | - | - | - |
| 1777191616 | 20.56° C | 61% | 1014.7 hPa | - | - | - | - |
| 1777190412 | 19.44° C | 64% | 1014.5 hPa | - | - | - | - |
| 1777189208 | 17.22° C | 70% | 1014.4 hPa | - | - | - | - |
* Rain since midnight (hover to see other rain measurements)
** Current wind speed in m/s (hover to see current wind gust speed)